Diomede, Alaska
Current Conditions -  °F | °C
As of 11:28 PM on Thursday 27 Nov 2014 (Local Time) from PATE Reporting Station
Overcast Overcast  
Wind Chill: 15°   Ceiling: 3900
Heat Index: 27°   Visibility: 10mi
Dew Point: 23°   Wind: 15mph
Humidity: 86%   Direction: 60°ENE
Pressure: 29.87"   Gusts: NA
Location:  65.1617°N, 164.975°W
Report Text: PATE 280828Z AUTO 06013KT 10SM OVC039 M03/M05 A2987 RMK AO2 WSHFT 0811 FZRANO
Loading
Personal Weather Stations






























Interactive Weather Map New forecast layout! Learn more

10-Day Weather Forecast

Advertisements
Track Severe Weather on mobile